Flatgap, Kentucky
Current Conditions -  °F | °C
As of 10:15 AM on Thursday 23 Oct 2014 (Local Time) from KSJS Reporting Station
Overcast Overcast  
Wind Chill: 47°   Ceiling: 3500
Heat Index: 49°   Visibility: 10mi
Dew Point: 43°   Wind: 5mph
Humidity: 80%   Direction: 30°NNE
Pressure: 30.24"   Gusts: NA
Location:  37.93°N, 82.89°W
Report Text: KSJS 231415Z AUTO 03004KT 10SM OVC035 09/06 A3024 RMK AO2 T00930060
Loading
Personal Weather Stations






























Interactive Weather Map
Tropical Storm Tracking
New forecast layout! Learn more

10-Day Weather Forecast

Advertisements
Track Severe Weather on mobile